Huvudsida
METAR-TAF:

METAR-TAF

Flygplatser :

Småland Airport

Växjö, Sverige

latitud: 56-51N, longitud: 014-50E, höjd: 199 m

Aktuellt väderrapport

Denna rapport gjordes för 57 minuter sedan, klockan 19:50 UTC
Vind 4 kt från syd
Temperatur 16°C
Fuktighet 88%
Tryck 1012 hPa
Sikt 10 km eller mer

METAR: ESMX 141950Z AUTO 18004KT 9999 NCD 16/14 Q1012

Tid: 22:47 (20:47 UTC)

Väderprognos

Denna rapport gjordes för 12 timmar och 17 minuter sedan, klockan 08:30 UTC
Prognos gäller från 14 kl. 09 UTC till 14 kl. 11 UTC
Vind 8 kt från sydväst
Sikt 10 km eller mer
Brutna moln på en höjd av 2000 ft
Sannolikhet 40%
från 14 kl. 09 UTC till 14 kl. 11 UTC
Brutna moln på en höjd av 2000 ft, Högtornande cumulus.

TAF: ESMX 140830Z 1409/1411 22008KT 9999 BKN020 PROB40 1409/1411 BKN020TCU

Aktuella väderrapporter och prognoser från 4000 flygplatser (METAR- och TAF-rapporter).

De tillgängliga stationerna syns som gula och röda prickar på kartan.

För musen över prickarna för att se namnen på stationerna.

Klicka sedan för att få väderrapporter och prognoser.

För att ändra kartan: Klicka på de gröna knapparna med ett svart kors på för att zooma in; den gröna knappen med ett streck på för att zooma ut; eller på de gröna pilarna för angränsande kartor.


METAR-TAF: